Time;durP1;ratioP1;P1;durP2;ratioP2;P2;SDS_P1;SDS_P2;PMS_P1;PMS_P2;Temp;Humidity;BMP_temperature;BMP_pressure;BME280_temperature;BME280_humidity;BME280_pressure;Samples;Min_cycle;Max_cycle;Signal;HPM_P1;HPM_P2
2023/06/30 00:00:39;;;;;;;7.38;4.10;;;;;;;;;;5069317;28;20444;-87
2023/06/30 00:03:06;;;;;;;7.32;4.80;;;;;;;;;;5093906;28;20059;-87
2023/06/30 00:05:38;;;;;;;5.35;4.15;;;;;;;;;;5095779;28;20078;-87
2023/06/30 00:08:08;;;;;;;7.15;4.50;;;;;;;;;;5096889;28;20044;-87
2023/06/30 00:10:38;;;;;;;20.70;4.90;;;;;;;;;;5096535;28;20059;-88
2023/06/30 00:13:06;;;;;;;4.68;4.28;;;;;;;;;;5096805;28;20137;-87
2023/06/30 00:15:34;;;;;;;5.28;4.78;;;;;;;;;;5096182;28;20052;-87
2023/06/30 00:18:02;;;;;;;5.03;3.95;;;;;;;;;;5097538;28;20048;-87
2023/06/30 00:20:30;;;;;;;4.38;4.07;;;;;;;;;;5097296;28;20047;-88
2023/06/30 00:22:57;;;;;;;5.55;4.40;;;;;;;;;;5097435;28;20044;-88
2023/06/30 00:25:26;;;;;;;4.38;3.97;;;;;;;;;;5097282;28;20048;-87
2023/06/30 00:27:53;;;;;;;5.78;4.68;;;;;;;;;;5096315;28;20050;-87
2023/06/30 00:30:22;;;;;;;8.82;4.70;;;;;;;;;;5097610;28;20048;-87
2023/06/30 00:32:49;;;;;;;4.82;4.43;;;;;;;;;;5096208;28;20516;-88
2023/06/30 00:35:17;;;;;;;5.18;4.68;;;;;;;;;;5095625;28;20047;-87
2023/06/30 00:37:44;;;;;;;4.97;4.47;;;;;;;;;;5096110;28;20052;-87
2023/06/30 00:40:17;;;;;;;5.90;4.07;;;;;;;;;;5096551;28;20493;-88
2023/06/30 00:42:44;;;;;;;8.17;4.30;;;;;;;;;;5096824;28;20078;-87
2023/06/30 00:45:12;;;;;;;5.30;4.80;;;;;;;;;;5096136;28;20274;-87
2023/06/30 00:47:39;;;;;;;5.30;4.80;;;;;;;;;;5095893;28;20040;-88
2023/06/30 00:50:07;;;;;;;6.45;4.57;;;;;;;;;;5095835;28;20071;-88
2023/06/30 00:52:35;;;;;;;5.25;4.60;;;;;;;;;;5096308;28;20055;-87
2023/06/30 00:55:03;;;;;;;7.32;4.72;;;;;;;;;;5096028;28;20056;-88
2023/06/30 00:57:31;;;;;;;8.50;4.45;;;;;;;;;;5096958;28;20048;-87
2023/06/30 01:00:05;;;;;;;6.75;5.05;;;;;;;;;;5095624;28;20052;-88
2023/06/30 01:02:34;;;;;;;4.75;4.35;;;;;;;;;;5095898;28;20071;-87
2023/06/30 01:05:09;;;;;;;5.57;4.70;;;;;;;;;;5104449;28;20394;-88
2023/06/30 01:07:48;;;;;;;8.82;5.25;;;;;;;;;;5103552;28;20050;-87
2023/06/30 01:10:17;;;;;;;6.70;4.95;;;;;;;;;;5095663;28;20054;-88
2023/06/30 01:12:45;;;;;;;8.63;4.90;;;;;;;;;;5096225;28;20056;-88
2023/06/30 01:15:13;;;;;;;6.07;4.97;;;;;;;;;;5095382;28;20063;-87
2023/06/30 01:17:59;;;;;;;5.72;5.22;;;;;;;;;;5094138;28;20062;-88
2023/06/30 01:20:29;;;;;;;5.60;5.10;;;;;;;;;;5096718;28;20044;-87
2023/06/30 01:23:24;;;;;;;6.90;5.30;;;;;;;;;;5095047;28;20136;-87
2023/06/30 01:25:52;;;;;;;6.38;5.25;;;;;;;;;;5091856;28;20568;-87
2023/06/30 01:28:19;;;;;;;6.63;5.45;;;;;;;;;;5095071;28;20117;-87
2023/06/30 01:30:47;;;;;;;7.93;5.72;;;;;;;;;;5094683;28;20055;-87
2023/06/30 01:33:14;;;;;;;6.72;5.78;;;;;;;;;;5094805;28;20093;-87
2023/06/30 01:35:42;;;;;;;6.18;5.47;;;;;;;;;;5094618;28;20052;-87
2023/06/30 01:38:10;;;;;;;6.18;5.57;;;;;;;;;;5094606;28;20052;-86
2023/06/30 01:40:39;;;;;;;8.10;5.75;;;;;;;;;;5094574;28;20490;-87
2023/06/30 01:43:07;;;;;;;6.93;4.90;;;;;;;;;;5096065;28;20485;-86
2023/06/30 01:45:35;;;;;;;6.68;5.60;;;;;;;;;;5094736;28;20048;-87
2023/06/30 01:48:03;;;;;;;6.03;5.50;;;;;;;;;;5095164;28;20101;-88
2023/06/30 01:50:31;;;;;;;5.78;5.28;;;;;;;;;;5094384;28;20044;-87
2023/06/30 01:53:04;;;;;;;5.32;4.93;;;;;;;;;;5094136;28;20048;-87
2023/06/30 01:55:32;;;;;;;6.60;6.00;;;;;;;;;;5094362;28;20109;-87
2023/06/30 01:58:03;;;;;;;6.35;5.70;;;;;;;;;;5094530;28;20048;-88
2023/06/30 02:00:30;;;;;;;5.93;5.43;;;;;;;;;;5094229;28;20872;-87
2023/06/30 02:02:58;;;;;;;7.70;6.00;;;;;;;;;;5093936;28;20105;-88
2023/06/30 02:05:26;;;;;;;6.72;5.53;;;;;;;;;;5093976;28;20050;-88
2023/06/30 02:07:53;;;;;;;6.30;5.80;;;;;;;;;;5094099;28;20047;-87
2023/06/30 02:10:20;;;;;;;6.43;5.82;;;;;;;;;;5094068;28;20044;-87
2023/06/30 02:12:48;;;;;;;7.40;5.70;;;;;;;;;;5095093;28;20048;-87
2023/06/30 02:15:15;;;;;;;7.05;6.35;;;;;;;;;;5093870;28;20497;-88
2023/06/30 02:17:43;;;;;;;6.30;5.70;;;;;;;;;;5093952;28;20054;-87
2023/06/30 02:20:10;;;;;;;6.38;5.80;;;;;;;;;;5093737;28;20145;-87
2023/06/30 02:22:38;;;;;;;6.65;6.07;;;;;;;;;;5093421;28;20052;-86
2023/06/30 02:25:06;;;;;;;5.90;5.35;;;;;;;;;;5093519;28;20122;-87
2023/06/30 02:27:34;;;;;;;7.57;6.32;;;;;;;;;;5093935;28;20047;-87
2023/06/30 02:30:05;;;;;;;5.97;5.53;;;;;;;;;;5093644;28;20097;-87
2023/06/30 02:32:37;;;;;;;7.78;6.63;;;;;;;;;;5093720;28;20051;-87
2023/06/30 02:35:06;;;;;;;6.63;6.10;;;;;;;;;;5093234;28;20151;-86
2023/06/30 02:37:33;;;;;;;6.72;6.13;;;;;;;;;;5093383;28;20047;-87
2023/06/30 02:40:04;;;;;;;6.63;6.05;;;;;;;;;;5093270;28;20044;-87
2023/06/30 02:42:32;;;;;;;8.30;5.72;;;;;;;;;;5093321;28;20051;-87
2023/06/30 02:45:00;;;;;;;11.00;5.82;;;;;;;;;;5093194;28;20103;-87
2023/06/30 02:47:27;;;;;;;7.05;6.32;;;;;;;;;;5093368;28;20051;-87
2023/06/30 02:49:56;;;;;;;6.72;6.05;;;;;;;;;;5093166;28;20405;-87
2023/06/30 02:52:23;;;;;;;6.78;6.00;;;;;;;;;;5093299;28;20052;-87
2023/06/30 02:54:51;;;;;;;6.50;6.00;;;;;;;;;;5093447;28;20051;-88
2023/06/30 02:57:20;;;;;;;6.25;5.43;;;;;;;;;;5092965;28;20058;-87
2023/06/30 02:59:48;;;;;;;9.48;6.03;;;;;;;;;;5093947;28;20052;-87
2023/06/30 03:02:16;;;;;;;5.85;5.38;;;;;;;;;;5093550;28;20048;-86
2023/06/30 03:04:44;;;;;;;6.25;5.70;;;;;;;;;;5093331;28;20048;-87
2023/06/30 03:07:11;;;;;;;6.18;5.57;;;;;;;;;;5093273;28;20048;-87
2023/06/30 03:09:40;;;;;;;6.03;5.30;;;;;;;;;;5093716;28;20072;-87
2023/06/30 03:12:07;;;;;;;6.63;5.43;;;;;;;;;;5093930;28;20492;-87
2023/06/30 03:14:35;;;;;;;6.93;5.30;;;;;;;;;;5093297;28;20052;-87
2023/06/30 03:17:03;;;;;;;5.90;5.28;;;;;;;;;;5093956;28;20477;-87
2023/06/30 03:19:31;;;;;;;7.00;5.50;;;;;;;;;;5106419;28;20109;-86
2023/06/30 03:22:00;;;;;;;15.55;6.03;;;;;;;;;;5095459;28;20105;-87
2023/06/30 03:24:27;;;;;;;6.82;5.53;;;;;;;;;;5093353;28;20048;-87
2023/06/30 03:26:55;;;;;;;9.32;5.13;;;;;;;;;;5092905;28;20047;-87
2023/06/30 03:29:23;;;;;;;6.82;5.80;;;;;;;;;;5094102;28;20105;-87
2023/06/30 03:31:50;;;;;;;7.60;5.53;;;;;;;;;;5093519;28;20052;-85
2023/06/30 03:34:18;;;;;;;6.32;5.80;;;;;;;;;;5092564;28;20071;-87
2023/06/30 03:36:45;;;;;;;7.57;5.35;;;;;;;;;;5094698;28;20054;-86
2023/06/30 03:39:13;;;;;;;6.40;5.80;;;;;;;;;;5096015;28;20047;-87
2023/06/30 03:41:43;;;;;;;6.20;5.70;;;;;;;;;;5093301;28;20429;-87
2023/06/30 03:44:11;;;;;;;6.20;5.78;;;;;;;;;;5092267;28;20044;-87
2023/06/30 03:46:38;;;;;;;6.90;6.20;;;;;;;;;;5092338;28;20055;-86
2023/06/30 03:49:05;;;;;;;8.10;6.22;;;;;;;;;;5092428;28;20075;-87
2023/06/30 03:51:33;;;;;;;7.35;6.65;;;;;;;;;;5093213;28;20505;-87
2023/06/30 03:54:00;;;;;;;7.43;6.82;;;;;;;;;;5092741;28;20055;-87
2023/06/30 03:56:27;;;;;;;6.80;6.20;;;;;;;;;;5091983;28;20493;-86
2023/06/30 03:58:55;;;;;;;8.32;7.18;;;;;;;;;;5092530;28;20101;-87
2023/06/30 04:01:23;;;;;;;7.47;6.65;;;;;;;;;;5092206;28;20048;-86
2023/06/30 04:03:51;;;;;;;6.80;6.20;;;;;;;;;;5092166;28;20044;-87
2023/06/30 04:06:19;;;;;;;7.47;6.70;;;;;;;;;;5092005;28;20050;-87
2023/06/30 04:08:46;;;;;;;8.50;6.97;;;;;;;;;;5092166;28;20507;-87
2023/06/30 04:11:13;;;;;;;7.53;6.80;;;;;;;;;;5092338;28;20114;-87
2023/06/30 04:13:41;;;;;;;8.38;6.70;;;;;;;;;;5092113;28;20059;-87
2023/06/30 04:16:08;;;;;;;7.55;6.95;;;;;;;;;;5092434;28;20048;-86
2023/06/30 04:18:36;;;;;;;8.13;6.75;;;;;;;;;;5092687;28;20059;-86
2023/06/30 04:21:03;;;;;;;6.50;5.90;;;;;;;;;;5092789;28;20074;-87
2023/06/30 04:23:30;;;;;;;6.93;6.30;;;;;;;;;;5092672;28;20048;-87
2023/06/30 04:25:58;;;;;;;6.30;5.70;;;;;;;;;;5092837;28;20044;-87
2023/06/30 04:28:25;;;;;;;8.75;5.93;;;;;;;;;;5092872;28;20062;-87
2023/06/30 04:30:52;;;;;;;6.18;5.57;;;;;;;;;;5092389;28;20048;-87
2023/06/30 04:33:20;;;;;;;6.45;5.90;;;;;;;;;;5092328;28;20056;-87
2023/06/30 04:35:47;;;;;;;9.13;5.60;;;;;;;;;;5092502;28;20055;-87
2023/06/30 04:38:15;;;;;;;8.20;6.50;;;;;;;;;;5093040;28;20048;-88
2023/06/30 04:40:44;;;;;;;6.07;5.57;;;;;;;;;;5094753;28;20075;-88
2023/06/30 04:43:12;;;;;;;5.72;5.22;;;;;;;;;;5092352;28;20051;-87
2023/06/30 04:45:40;;;;;;;7.25;5.95;;;;;;;;;;5092582;28;20052;-87
2023/06/30 04:48:08;;;;;;;5.57;5.07;;;;;;;;;;5092639;28;20474;-87
2023/06/30 04:50:36;;;;;;;5.93;5.00;;;;;;;;;;5091945;28;20044;-86
2023/06/30 04:53:04;;;;;;;6.35;5.50;;;;;;;;;;5092782;28;20455;-87
2023/06/30 04:55:32;;;;;;;5.63;4.90;;;;;;;;;;5095983;28;20048;-86
2023/06/30 04:58:00;;;;;;;7.30;5.10;;;;;;;;;;5095807;28;20048;-87
2023/06/30 05:00:27;;;;;;;7.38;5.50;;;;;;;;;;5095407;28;20408;-87
2023/06/30 05:02:56;;;;;;;9.18;4.95;;;;;;;;;;5095927;28;20061;-87
2023/06/30 05:05:23;;;;;;;5.60;5.07;;;;;;;;;;5095391;28;20657;-87
2023/06/30 05:07:53;;;;;;;5.65;5.15;;;;;;;;;;5095748;28;20109;-87
2023/06/30 05:10:20;;;;;;;9.43;5.15;;;;;;;;;;5097819;28;20040;-87
2023/06/30 05:12:50;;;;;;;5.80;5.18;;;;;;;;;;5096506;28;20051;-88
2023/06/30 05:15:18;;;;;;;7.10;5.57;;;;;;;;;;5095111;28;20051;-88
2023/06/30 05:17:46;;;;;;;5.95;5.30;;;;;;;;;;5097374;28;20113;-87
2023/06/30 05:20:13;;;;;;;5.75;5.10;;;;;;;;;;5096095;28;20052;-87
2023/06/30 05:22:41;;;;;;;7.03;4.88;;;;;;;;;;5096716;28;20386;-87
2023/06/30 05:25:08;;;;;;;6.68;5.07;;;;;;;;;;5096192;28;20056;-87
2023/06/30 05:27:35;;;;;;;6.57;5.82;;;;;;;;;;5095817;28;20074;-88
2023/06/30 05:30:03;;;;;;;6.60;5.38;;;;;;;;;;5096283;28;20048;-87
2023/06/30 05:32:31;;;;;;;5.55;5.05;;;;;;;;;;5099909;28;20059;-87
2023/06/30 05:35:00;;;;;;;8.32;4.47;;;;;;;;;;5102158;28;20425;-87
2023/06/30 05:37:27;;;;;;;6.03;5.10;;;;;;;;;;5094687;28;20047;-87
2023/06/30 05:39:55;;;;;;;8.25;5.35;;;;;;;;;;5094737;28;20497;-87
2023/06/30 05:42:23;;;;;;;13.02;6.00;;;;;;;;;;5094840;28;20047;-86
2023/06/30 05:44:52;;;;;;;10.55;6.20;;;;;;;;;;5094454;28;20493;-87
2023/06/30 05:47:19;;;;;;;10.70;6.15;;;;;;;;;;5094849;28;20054;-87
2023/06/30 05:49:47;;;;;;;11.13;7.93;;;;;;;;;;5094466;28;20043;-86
2023/06/30 05:52:14;;;;;;;6.60;5.55;;;;;;;;;;5094723;28;20394;-87
2023/06/30 05:54:42;;;;;;;6.10;5.40;;;;;;;;;;5094884;28;20048;-87
2023/06/30 05:57:09;;;;;;;11.25;5.55;;;;;;;;;;5095028;28;20048;-86
2023/06/30 05:59:37;;;;;;;8.18;5.50;;;;;;;;;;5095109;28;20052;-87
2023/06/30 06:02:04;;;;;;;7.13;4.95;;;;;;;;;;5094736;28;20071;-87
2023/06/30 06:04:33;;;;;;;6.00;5.50;;;;;;;;;;5094410;28;20048;-86
2023/06/30 06:07:05;;;;;;;5.53;5.00;;;;;;;;;;5094540;28;20089;-87
2023/06/30 06:09:34;;;;;;;6.07;5.57;;;;;;;;;;5095817;28;20048;-86
2023/06/30 06:12:02;;;;;;;7.72;5.10;;;;;;;;;;5094266;28;20138;-84
2023/06/30 06:14:30;;;;;;;8.23;5.57;;;;;;;;;;5095092;28;20052;-85
2023/06/30 06:16:57;;;;;;;7.70;5.85;;;;;;;;;;5094261;28;20405;-85
2023/06/30 06:19:25;;;;;;;11.30;5.95;;;;;;;;;;5095070;28;20081;-85
2023/06/30 06:21:52;;;;;;;8.80;6.97;;;;;;;;;;5094110;28;20485;-85
2023/06/30 06:24:19;;;;;;;10.98;8.07;;;;;;;;;;5094049;28;20044;-84
2023/06/30 06:26:47;;;;;;;7.97;6.07;;;;;;;;;;5094010;28;20070;-85
2023/06/30 06:29:19;;;;;;;8.25;5.80;;;;;;;;;;5094125;28;20048;-85
2023/06/30 06:31:46;;;;;;;8.82;5.60;;;;;;;;;;5093545;28;20394;-85
2023/06/30 06:34:13;;;;;;;6.63;5.35;;;;;;;;;;5093516;28;20456;-85
2023/06/30 06:36:41;;;;;;;5.88;5.28;;;;;;;;;;5091721;28;20051;-85
2023/06/30 06:39:08;;;;;;;8.38;5.70;;;;;;;;;;5092935;28;20048;-85
2023/06/30 06:41:35;;;;;;;7.22;5.65;;;;;;;;;;5092513;28;20055;-84
2023/06/30 06:44:02;;;;;;;5.10;4.60;;;;;;;;;;5093179;28;20047;-85
2023/06/30 06:46:30;;;;;;;8.07;5.30;;;;;;;;;;5093086;28;20055;-85
2023/06/30 06:48:57;;;;;;;6.00;5.18;;;;;;;;;;5092547;28;20502;-85
2023/06/30 06:51:24;;;;;;;10.07;6.68;;;;;;;;;;5091885;28;20047;-85
2023/06/30 06:53:53;;;;;;;9.82;5.43;;;;;;;;;;5094070;28;20055;-84
2023/06/30 06:56:21;;;;;;;8.10;5.32;;;;;;;;;;5092846;28;20097;-85
2023/06/30 06:58:48;;;;;;;5.82;5.00;;;;;;;;;;5093085;28;20102;-85
2023/06/30 07:01:15;;;;;;;7.25;6.15;;;;;;;;;;5092561;28;20087;-85
2023/06/30 07:03:43;;;;;;;9.02;5.75;;;;;;;;;;5092680;28;20087;-85
2023/06/30 07:06:10;;;;;;;8.32;5.60;;;;;;;;;;5092782;28;20044;-85
2023/06/30 07:08:39;;;;;;;6.22;4.95;;;;;;;;;;5092636;28;20044;-85
2023/06/30 07:11:06;;;;;;;8.07;5.50;;;;;;;;;;5092467;28;20083;-86
2023/06/30 07:13:34;;;;;;;6.00;5.00;;;;;;;;;;5092680;28;20048;-85
2023/06/30 07:16:01;;;;;;;7.55;4.97;;;;;;;;;;5091904;28;20135;-85
2023/06/30 07:18:29;;;;;;;5.30;4.80;;;;;;;;;;5092777;28;20046;-87
2023/06/30 07:20:57;;;;;;;7.45;5.03;;;;;;;;;;5093295;28;20044;-85
2023/06/30 07:23:25;;;;;;;6.10;5.10;;;;;;;;;;5092343;28;20460;-85
2023/06/30 07:25:53;;;;;;;6.45;5.13;;;;;;;;;;5092390;28;20054;-85
2023/06/30 07:28:21;;;;;;;5.90;4.80;;;;;;;;;;5092695;28;20048;-86
2023/06/30 07:30:48;;;;;;;5.47;5.00;;;;;;;;;;5092659;28;20050;-85
2023/06/30 07:33:17;;;;;;;6.25;5.30;;;;;;;;;;5094590;28;20417;-85
2023/06/30 07:35:44;;;;;;;6.03;5.43;;;;;;;;;;5094054;28;20071;-84
2023/06/30 07:38:13;;;;;;;5.70;5.20;;;;;;;;;;5096204;28;20052;-84
2023/06/30 07:40:41;;;;;;;6.13;5.15;;;;;;;;;;5099507;28;20467;-85
2023/06/30 07:43:24;;;;;;;6.38;5.28;;;;;;;;;;5094114;28;20052;-85
2023/06/30 07:45:51;;;;;;;5.97;5.38;;;;;;;;;;5103082;28;20057;-85
2023/06/30 07:48:20;;;;;;;7.30;5.57;;;;;;;;;;5112361;28;20061;-84
2023/06/30 07:50:47;;;;;;;6.22;5.60;;;;;;;;;;5104323;28;20048;-84
2023/06/30 07:53:33;;;;;;;7.55;5.55;;;;;;;;;;5094256;28;20123;-86
2023/06/30 07:56:01;;;;;;;7.97;5.22;;;;;;;;;;5093784;28;20055;-85
2023/06/30 07:58:28;;;;;;;6.13;5.53;;;;;;;;;;5093059;28;20055;-84
2023/06/30 08:01:27;;;;;;;9.80;5.30;;;;;;;;;;5093896;28;20134;-83
2023/06/30 08:03:57;;;;;;;5.32;4.82;;;;;;;;;;5095061;28;20083;-84
2023/06/30 08:06:32;;;;;;;7.68;4.70;;;;;;;;;;5094543;28;20044;-83
2023/06/30 08:09:00;;;;;;;6.88;4.82;;;;;;;;;;5096181;28;20102;-83
2023/06/30 08:11:27;;;;;;;5.00;4.63;;;;;;;;;;5094049;28;20048;-83
2023/06/30 08:14:06;;;;;;;6.88;4.80;;;;;;;;;;5093069;28;20044;-83
2023/06/30 08:16:34;;;;;;;4.93;4.50;;;;;;;;;;5092520;28;20127;-82
2023/06/30 08:19:02;;;;;;;8.77;5.55;;;;;;;;;;5092739;28;20048;-83
2023/06/30 08:21:29;;;;;;;5.35;4.85;;;;;;;;;;5092685;28;20456;-83
2023/06/30 08:23:57;;;;;;;6.18;5.28;;;;;;;;;;5092861;28;20048;-83
2023/06/30 08:26:24;;;;;;;6.18;4.97;;;;;;;;;;5093112;28;20074;-83
2023/06/30 08:28:52;;;;;;;5.43;4.93;;;;;;;;;;5096067;28;20054;-84
2023/06/30 08:31:19;;;;;;;5.75;4.60;;;;;;;;;;5097075;28;20047;-84
2023/06/30 08:34:16;;;;;;;6.95;5.55;;;;;;;;;;5097294;28;20055;-84
2023/06/30 08:36:44;;;;;;;5.78;5.20;;;;;;;;;;5056756;28;20056;-83
2023/06/30 08:39:13;;;;;;;5.57;4.95;;;;;;;;;;5060196;28;20056;-82
2023/06/30 08:41:42;;;;;;;6.10;5.00;;;;;;;;;;5058471;28;20068;-84
2023/06/30 08:44:10;;;;;;;5.95;5.00;;;;;;;;;;5058735;28;20049;-83
2023/06/30 08:46:37;;;;;;;7.80;5.38;;;;;;;;;;5059474;28;20052;-82
2023/06/30 08:49:05;;;;;;;6.57;5.03;;;;;;;;;;5058553;28;20056;-84
2023/06/30 08:52:10;;;;;;;8.65;4.95;;;;;;;;;;5058820;28;20048;-84
2023/06/30 08:54:38;;;;;;;5.85;4.97;;;;;;;;;;5040760;28;20056;-83
2023/06/30 08:57:06;;;;;;;7.07;4.97;;;;;;;;;;5069334;28;20417;-83
2023/06/30 08:59:40;;;;;;;4.97;4.57;;;;;;;;;;5055871;28;20110;-84
2023/06/30 09:02:07;;;;;;;7.88;4.72;;;;;;;;;;5055507;28;20048;-85
2023/06/30 09:04:36;;;;;;;6.20;5.20;;;;;;;;;;5056082;28;20076;-84
2023/06/30 09:07:06;;;;;;;5.38;4.50;;;;;;;;;;5059526;28;20049;-84
2023/06/30 09:09:36;;;;;;;8.85;5.53;;;;;;;;;;5058876;28;20084;-84
2023/06/30 09:12:19;;;;;;;7.43;5.45;;;;;;;;;;5057590;28;20049;-84
2023/06/30 09:14:46;;;;;;;10.88;5.57;;;;;;;;;;5057853;28;20052;-84
2023/06/30 09:17:17;;;;;;;15.93;5.88;;;;;;;;;;5055312;28;20052;-84
2023/06/30 09:19:49;;;;;;;9.73;5.30;;;;;;;;;;5056357;28;20052;-85
2023/06/30 09:22:20;;;;;;;6.25;5.65;;;;;;;;;;5060583;28;20053;-82
2023/06/30 09:25:28;;;;;;;6.45;4.93;;;;;;;;;;5053069;28;20132;-84
2023/06/30 09:28:14;;;;;;;7.65;5.00;;;;;;;;;;5055149;28;20045;-84
2023/06/30 09:30:46;;;;;;;10.93;5.75;;;;;;;;;;5055644;28;20049;-85
2023/06/30 09:33:36;;;;;;;5.95;5.35;;;;;;;;;;5055956;28;20048;-83
2023/06/30 09:36:16;;;;;;;8.50;5.55;;;;;;;;;;5084567;28;20436;-84
2023/06/30 09:38:43;;;;;;;5.82;5.25;;;;;;;;;;5098946;28;20052;-84
2023/06/30 09:41:20;;;;;;;6.55;5.63;;;;;;;;;;5106099;28;20056;-83
2023/06/30 09:43:48;;;;;;;10.70;6.10;;;;;;;;;;5108985;28;20052;-83
2023/06/30 09:46:15;;;;;;;6.20;5.68;;;;;;;;;;5106707;28;20044;-84
2023/06/30 09:48:47;;;;;;;8.05;5.63;;;;;;;;;;5103674;28;20417;-84
2023/06/30 09:51:20;;;;;;;7.43;5.80;;;;;;;;;;5104723;28;20052;-84
2023/06/30 09:53:56;;;;;;;6.13;5.53;;;;;;;;;;5104962;28;20086;-84
2023/06/30 09:56:26;;;;;;;7.53;5.80;;;;;;;;;;5106469;28;20048;-83
2023/06/30 09:58:57;;;;;;;6.30;5.70;;;;;;;;;;5108085;28;20107;-83
2023/06/30 10:01:24;;;;;;;7.80;6.40;;;;;;;;;;5109611;28;20052;-84
2023/06/30 10:03:54;;;;;;;6.75;5.95;;;;;;;;;;5114732;28;20107;-83
2023/06/30 10:06:23;;;;;;;6.75;6.15;;;;;;;;;;5099733;28;20048;-81
2023/06/30 10:08:51;;;;;;;7.68;6.57;;;;;;;;;;5096123;28;20048;-78
2023/06/30 10:11:22;;;;;;;10.98;7.85;;;;;;;;;;5094038;28;20048;-77
2023/06/30 10:13:54;;;;;;;16.40;8.30;;;;;;;;;;5093757;28;20048;-77
2023/06/30 10:16:22;;;;;;;13.60;8.57;;;;;;;;;;5095067;28;20051;-78
2023/06/30 10:18:50;;;;;;;18.95;9.77;;;;;;;;;;5100108;28;20058;-78
2023/06/30 10:21:19;;;;;;;15.18;9.43;;;;;;;;;;5095821;28;20490;-78
2023/06/30 10:23:47;;;;;;;16.77;10.10;;;;;;;;;;5093933;28;20059;-77
2023/06/30 10:26:19;;;;;;;16.70;10.50;;;;;;;;;;5094025;28;20043;-77
2023/06/30 10:28:47;;;;;;;16.58;10.73;;;;;;;;;;5093624;28;20568;-76
2023/06/30 10:31:15;;;;;;;11.45;10.25;;;;;;;;;;5094554;28;20044;-76
2023/06/30 10:33:43;;;;;;;14.73;11.25;;;;;;;;;;5093613;28;20127;-76
2023/06/30 10:36:10;;;;;;;18.17;12.05;;;;;;;;;;5093418;28;20054;-77
2023/06/30 10:38:38;;;;;;;13.85;11.50;;;;;;;;;;5094886;28;20518;-76
2023/06/30 10:41:17;;;;;;;18.42;12.43;;;;;;;;;;5093495;28;20052;-76
2023/06/30 10:44:05;;;;;;;16.27;12.18;;;;;;;;;;5093309;28;20068;-76
2023/06/30 10:46:41;;;;;;;15.90;12.25;;;;;;;;;;5093358;28;20048;-76
2023/06/30 10:49:17;;;;;;;15.57;12.07;;;;;;;;;;5094267;28;20075;-77
2023/06/30 10:51:46;;;;;;;12.85;9.05;;;;;;;;;;5093280;28;20051;-77
2023/06/30 10:54:36;;;;;;;12.63;9.82;;;;;;;;;;5093651;28;20097;-78
2023/06/30 10:57:11;;;;;;;12.80;9.77;;;;;;;;;;5094378;28;20548;-78
2023/06/30 10:59:39;;;;;;;16.33;10.48;;;;;;;;;;5094375;28;20117;-79
2023/06/30 11:02:19;;;;;;;10.63;8.70;;;;;;;;;;5094829;28;20044;-78
2023/06/30 11:04:47;;;;;;;11.50;9.63;;;;;;;;;;5095482;28;20456;-79
2023/06/30 11:07:18;;;;;;;12.98;10.43;;;;;;;;;;5096757;28;20040;-80
2023/06/30 11:09:48;;;;;;;13.05;9.27;;;;;;;;;;5095615;28;20048;-80
2023/06/30 11:12:20;;;;;;;14.68;9.18;;;;;;;;;;5097147;28;20114;-78
2023/06/30 11:14:52;;;;;;;16.75;10.90;;;;;;;;;;5097321;28;20047;-77
2023/06/30 11:17:21;;;;;;;12.18;10.27;;;;;;;;;;5096809;28;20051;-79
2023/06/30 11:20:07;;;;;;;13.65;10.68;;;;;;;;;;5097232;28;20048;-81
2023/06/30 11:22:34;;;;;;;18.27;11.60;;;;;;;;;;5099460;28;20382;-80
2023/06/30 11:25:05;;;;;;;13.55;10.77;;;;;;;;;;5096924;28;20074;-80
2023/06/30 11:27:33;;;;;;;18.75;12.73;;;;;;;;;;5096927;28;20055;-78
2023/06/30 11:30:07;;;;;;;15.00;12.27;;;;;;;;;;5097098;28;20048;-79
2023/06/30 11:32:36;;;;;;;16.52;12.25;;;;;;;;;;5095543;28;20048;-83
2023/06/30 11:35:07;;;;;;;16.30;12.05;;;;;;;;;;5093920;28;20151;-79
2023/06/30 11:37:37;;;;;;;19.75;11.80;;;;;;;;;;5097912;28;20044;-79
2023/06/30 11:40:08;;;;;;;24.80;12.45;;;;;;;;;;5097703;28;20047;-80
2023/06/30 11:42:53;;;;;;;14.30;11.15;;;;;;;;;;5096613;28;20047;-80
2023/06/30 11:45:27;;;;;;;16.05;12.13;;;;;;;;;;5096342;28;20055;-79
2023/06/30 11:47:56;;;;;;;17.90;11.40;;;;;;;;;;5099115;28;20130;-83
2023/06/30 11:50:25;;;;;;;19.67;12.05;;;;;;;;;;5100968;28;20044;-81
2023/06/30 11:52:53;;;;;;;25.90;12.52;;;;;;;;;;5099546;28;20040;-81
2023/06/30 11:55:20;;;;;;;17.00;12.18;;;;;;;;;;5100656;28;20055;-82
2023/06/30 11:57:49;;;;;;;16.38;11.63;;;;;;;;;;5104094;28;20048;-81
2023/06/30 12:00:19;;;;;;;18.05;12.48;;;;;;;;;;5100704;28;20055;-82
2023/06/30 12:02:47;;;;;;;14.88;11.80;;;;;;;;;;5104553;28;20059;-83
2023/06/30 12:05:26;;;;;;;13.73;10.82;;;;;;;;;;5104272;28;20111;-84
2023/06/30 12:07:57;;;;;;;13.35;11.05;;;;;;;;;;5106405;28;20044;-82
2023/06/30 12:10:37;;;;;;;12.68;9.77;;;;;;;;;;5107994;28;20058;-83
2023/06/30 12:13:08;;;;;;;13.75;10.43;;;;;;;;;;5106529;28;20040;-83
2023/06/30 12:15:36;;;;;;;14.32;10.52;;;;;;;;;;5109345;28;20048;-81
2023/06/30 12:18:06;;;;;;;13.90;10.38;;;;;;;;;;5108212;28;20044;-80
2023/06/30 12:20:37;;;;;;;13.57;9.88;;;;;;;;;;5105984;28;20493;-79
2023/06/30 12:23:15;;;;;;;11.77;10.07;;;;;;;;;;5103990;28;20416;-81
2023/06/30 12:25:48;;;;;;;14.98;11.00;;;;;;;;;;5103888;28;20044;-82
2023/06/30 12:28:17;;;;;;;14.80;10.43;;;;;;;;;;5105025;28;20040;-83
2023/06/30 12:30:44;;;;;;;15.25;10.32;;;;;;;;;;5101877;28;20052;-82
2023/06/30 12:33:19;;;;;;;14.15;9.85;;;;;;;;;;5100817;28;20070;-84
2023/06/30 12:35:49;;;;;;;11.48;10.10;;;;;;;;;;5101143;28;20083;-83
2023/06/30 12:38:18;;;;;;;13.07;9.88;;;;;;;;;;5099781;28;20472;-84
2023/06/30 12:40:45;;;;;;;15.55;11.20;;;;;;;;;;5098410;28;20051;-83
2023/06/30 12:43:17;;;;;;;12.80;11.00;;;;;;;;;;5098269;28;20059;-82
2023/06/30 12:45:44;;;;;;;15.73;12.93;;;;;;;;;;5100485;28;20086;-83
2023/06/30 12:48:11;;;;;;;28.33;13.98;;;;;;;;;;5100704;28;20044;-78
2023/06/30 12:50:39;;;;;;;28.30;16.40;;;;;;;;;;5099332;28;20047;-81
2023/06/30 12:53:07;;;;;;;26.60;17.52;;;;;;;;;;5096908;28;20044;-84
2023/06/30 12:55:35;;;;;;;29.00;18.00;;;;;;;;;;5096717;28;20419;-83
2023/06/30 12:58:02;;;;;;;27.35;17.75;;;;;;;;;;5097897;28;20051;-82
2023/06/30 13:00:29;;;;;;;29.05;17.10;;;;;;;;;;5096737;28;20052;-83
2023/06/30 13:02:57;;;;;;;28.85;17.35;;;;;;;;;;5096830;28;20058;-81
2023/06/30 13:05:29;;;;;;;22.90;17.98;;;;;;;;;;5097614;28;20429;-81
2023/06/30 13:07:56;;;;;;;22.92;17.95;;;;;;;;;;5096970;28;20087;-80
2023/06/30 13:10:25;;;;;;;27.20;21.85;;;;;;;;;;5097227;28;20113;-80
2023/06/30 13:12:54;;;;;;;33.55;23.55;;;;;;;;;;5096638;28;20102;-81
2023/06/30 13:15:25;;;;;;;38.20;24.55;;;;;;;;;;5096898;28;20048;-82
2023/06/30 13:17:53;;;;;;;33.08;23.80;;;;;;;;;;5096953;28;20051;-81
2023/06/30 13:20:20;;;;;;;34.30;22.75;;;;;;;;;;5095985;28;20044;-80
2023/06/30 13:22:49;;;;;;;39.25;25.45;;;;;;;;;;5095535;28;20048;-80
2023/06/30 13:25:36;;;;;;;35.72;24.60;;;;;;;;;;5105816;28;20040;-80
2023/06/30 13:28:04;;;;;;;34.05;24.17;;;;;;;;;;5106326;28;20105;-80
2023/06/30 13:30:31;;;;;;;40.88;23.65;;;;;;;;;;5105191;28;20051;-79
2023/06/30 13:32:58;;;;;;;24.17;17.80;;;;;;;;;;5106943;28;20508;-82
2023/06/30 13:35:26;;;;;;;26.70;18.90;;;;;;;;;;5107236;28;20052;-82
2023/06/30 13:37:53;;;;;;;29.10;16.95;;;;;;;;;;5107296;28;20067;-79
2023/06/30 13:40:23;;;;;;;17.90;13.23;;;;;;;;;;5105598;28;20040;-80
2023/06/30 13:42:50;;;;;;;21.38;14.93;;;;;;;;;;5108165;28;20493;-83
2023/06/30 13:45:19;;;;;;;18.25;12.80;;;;;;;;;;5107876;28;20074;-82
2023/06/30 13:47:47;;;;;;;22.15;12.77;;;;;;;;;;5110798;28;20044;-82
2023/06/30 13:50:19;;;;;;;18.55;12.63;;;;;;;;;;5109873;28;20075;-81
2023/06/30 13:52:47;;;;;;;14.55;11.75;;;;;;;;;;5105175;28;20040;-80
2023/06/30 13:55:14;;;;;;;15.10;11.35;;;;;;;;;;5102168;28;20378;-82
2023/06/30 13:57:42;;;;;;;16.88;12.20;;;;;;;;;;5107712;28;20097;-80
2023/06/30 14:00:11;;;;;;;19.88;14.20;;;;;;;;;;5101287;28;20059;-80
2023/06/30 14:02:38;;;;;;;21.50;15.32;;;;;;;;;;5101031;28;20067;-79
2023/06/30 14:05:07;;;;;;;20.60;15.13;;;;;;;;;;5101662;28;20052;-79
2023/06/30 14:07:34;;;;;;;23.08;14.98;;;;;;;;;;5102435;28;20051;-80
2023/06/30 14:10:04;;;;;;;19.40;14.48;;;;;;;;;;5103696;28;20051;-81
2023/06/30 14:12:31;;;;;;;22.77;15.30;;;;;;;;;;5104206;28;20052;-80
2023/06/30 14:15:01;;;;;;;18.70;14.25;;;;;;;;;;5100652;28;20044;-80
2023/06/30 14:17:29;;;;;;;21.92;15.38;;;;;;;;;;5103951;28;20526;-80
2023/06/30 14:19:56;;;;;;;23.10;15.15;;;;;;;;;;5104550;28;20055;-80
2023/06/30 14:22:26;;;;;;;19.00;14.65;;;;;;;;;;5105642;28;20554;-80
2023/06/30 14:24:53;;;;;;;20.95;14.57;;;;;;;;;;5107330;28;20105;-82
2023/06/30 14:27:24;;;;;;;18.50;13.85;;;;;;;;;;5106584;28;20048;-81
2023/06/30 14:29:51;;;;;;;20.95;14.02;;;;;;;;;;5105910;28;20040;-80
2023/06/30 14:32:20;;;;;;;19.65;13.20;;;;;;;;;;5105823;28;20048;-80
2023/06/30 14:34:50;;;;;;;17.38;12.68;;;;;;;;;;5102483;28;20119;-80
2023/06/30 14:37:17;;;;;;;18.35;11.80;;;;;;;;;;5106243;28;20052;-81
2023/06/30 14:39:44;;;;;;;20.30;13.85;;;;;;;;;;5105942;28;20052;-81
2023/06/30 14:42:12;;;;;;;18.42;13.20;;;;;;;;;;5105516;28;20059;-84
2023/06/30 14:44:57;;;;;;;14.50;12.07;;;;;;;;;;5107368;28;20075;-82
2023/06/30 14:47:25;;;;;;;16.35;12.32;;;;;;;;;;5101259;28;20040;-82
2023/06/30 14:49:52;;;;;;;17.45;11.85;;;;;;;;;;5105416;28;20044;-84